Clovis ASC

April 5, 2020, 11:05 a.m.

  • imperial
Air Temperature RH Dewpoint Wind Chill Heat Index Wind Speed Wind Direction Precipitation Solar Radiation Soil Temperature
Date Time Max Mean Mean Total Total
US/Mountain F % F F F MPH MPH MPH deg. deg. in. MJ/m^2 F
2020-04-04 11:05 49.71 47.19 30.39 49.71 49.71 2.59 4.74 2.51 61.3 132.6 0.0 0.256 53.13
2020-04-04 11:10 48.97 48.11 30.19 47.51 48.97 4.21 5.1 3.13 54.4 249.4 0.0 0.259 53.38
2020-04-04 11:15 48.97 47.33 29.78 47.15 48.97 4.74 7.96 5.57 25.1 126.7 0.0 0.262 53.65
2020-04-04 11:20 49.28 46.27 29.51 48.72 49.28 3.13 7.25 4.56 35.0 132.0 0.0 0.264 53.94
2020-04-04 11:25 49.46 45.29 29.15 47.29 49.46 5.46 8.86 5.41 38.1 249.5 0.0 0.268 54.21
2020-04-04 11:30 49.64 45.9 29.64 49.64 49.64 2.59 6.17 2.89 51.3 292.8 0.0 0.269 54.48
2020-04-04 11:35 50.2 44.98 29.65 50.2 50.2 5.28 8.12 4.07 40.5 164.0 0.0 0.272 54.79
2020-04-04 11:40 50.68 45.8 30.54 50.68 50.68 5.46 8.86 4.72 34.9 135.9 0.0 0.274 55.06
2020-04-04 11:45 50.86 47.87 31.8 50.86 50.86 4.56 8.86 5.77 28.8 157.0 0.0 0.276 55.33
2020-04-04 11:50 50.94 43.93 29.74 50.94 50.94 4.21 7.61 4.41 34.6 176.9 0.0 0.278 55.62
2020-04-04 11:55 50.76 44.0 29.62 50.76 50.76 4.74 9.22 5.35 22.9 164.4 0.0 0.28 55.89
2020-04-04 12:00 52.27 44.27 31.15 52.27 52.27 5.64 5.64 3.56 43.5 167.3 0.0 0.282 56.17
2020-04-04 12:05 51.67 43.46 30.15 51.67 51.67 3.31 10.09 6.93 15.6 166.2 0.0 0.283 56.44
2020-04-04 12:10 52.16 42.3 29.93 52.16 52.16 7.78 9.73 6.49 22.7 184.7 0.0 0.285 56.73
2020-04-04 12:15 51.67 44.85 30.93 51.67 51.67 3.49 9.04 5.77 25.6 208.3 0.0 0.285 56.97
2020-04-04 12:20 53.01 42.06 30.55 53.01 53.01 7.25 7.25 4.38 29.8 161.0 0.0 0.289 57.24
2020-04-04 12:25 52.95 43.22 31.17 52.95 52.95 4.21 11.52 6.53 21.5 154.7 0.0 0.29 57.49
2020-04-04 12:30 53.8 44.92 32.9 53.8 53.8 5.46 5.82 3.44 41.6 123.7 0.0 0.29 57.74
2020-04-04 12:35 54.41 44.17 33.04 54.41 54.41 7.96 11.16 6.89 14.5 161.1 0.0 0.29 57.97
2020-04-04 12:40 54.18 44.2 32.84 54.18 54.18 7.78 11.34 8.05 31.7 170.4 0.0 0.289 58.19
2020-04-04 12:45 53.62 43.46 31.92 53.62 53.62 6.35 12.24 8.88 10.5 174.0 0.0 0.29 58.42
2020-04-04 12:50 53.62 44.64 32.58 53.62 53.62 7.78 10.98 5.97 32.5 149.6 0.0 0.289 58.66
2020-04-04 12:55 53.44 42.95 31.46 53.44 53.44 5.64 10.98 8.1 13.7 134.2 0.0 0.289 58.87
2020-04-04 13:00 54.54 44.51 33.34 54.54 54.54 6.53 9.4 6.02 37.4 140.9 0.0 0.289 59.07
2020-04-04 13:05 55.33 42.95 33.17 55.33 55.33 6.89 10.45 6.73 26.3 169.9 0.0 0.29 59.31
2020-04-04 13:10 55.02 42.03 32.36 55.02 55.02 9.57 11.34 8.7 18.4 148.4 0.0 0.289 59.5
2020-04-04 13:15 54.66 42.61 32.37 54.66 54.66 0.98 10.63 6.35 45.1 143.2 0.0 0.287 59.72
2020-04-04 13:20 55.33 41.89 32.55 55.33 55.33 5.64 10.63 6.62 24.9 169.9 0.0 0.287 59.94
2020-04-04 13:25 55.15 45.93 34.69 55.15 55.15 8.48 10.8 6.13 19.5 164.4 0.0 0.286 60.15
2020-04-04 13:30 55.76 44.81 34.63 55.76 55.76 9.4 14.56 9.71 24.1 169.1 0.0 0.285 60.37
2020-04-04 13:35 55.58 43.66 33.81 55.58 55.58 7.07 12.42 9.22 16.5 159.4 0.0 0.285 60.58
2020-04-04 13:40 55.58 42.78 33.3 55.58 55.58 2.95 9.91 6.22 36.0 179.7 0.0 0.283 60.8
2020-04-04 13:45 55.94 41.49 32.86 55.94 55.94 4.03 11.88 8.17 19.8 174.4 0.0 0.283 61.03
2020-04-04 13:50 56.86 40.26 32.94 56.86 56.86 5.64 10.09 5.46 19.2 149.7 0.0 0.282 61.25
2020-04-04 13:55 56.07 41.93 33.24 56.07 56.07 5.28 13.67 8.37 16.2 157.3 0.0 0.281 61.47
2020-04-04 14:00 56.43 41.69 33.42 56.43 56.43 4.74 11.34 7.09 17.5 163.9 0.0 0.279 61.7
2020-04-04 14:05 57.6 41.45 34.33 57.6 57.6 6.71 10.09 7.38 26.4 178.5 0.0 0.277 61.9
2020-04-04 14:10 57.04 43.39 34.98 57.04 57.04 12.42 14.92 9.17 11.8 186.3 0.0 0.275 62.13
2020-04-04 14:15 56.5 42.13 33.75 56.5 56.5 8.86 12.06 9.46 13.0 177.9 0.0 0.273 62.37
2020-04-04 14:20 57.22 41.28 33.89 57.22 57.22 6.35 12.06 8.1 18.9 173.1 0.0 0.271 62.56
2020-04-04 14:25 57.52 41.08 34.04 57.52 57.52 13.49 14.2 8.46 15.3 141.9 0.0 0.269 62.8
2020-04-04 14:30 57.4 40.81 33.77 57.4 57.4 12.59 15.28 9.64 12.8 166.9 0.0 0.266 63.01
2020-04-04 14:35 58.21 43.35 36.02 58.21 58.21 8.12 12.77 8.7 23.4 175.4 0.0 0.264 63.21
2020-04-04 14:40 58.51 40.33 34.47 58.51 58.51 6.71 14.38 8.77 11.5 166.5 0.0 0.26 63.41
2020-04-04 14:45 58.75 39.11 33.91 58.75 58.75 8.12 13.49 9.26 16.4 162.3 0.0 0.257 63.61
2020-04-04 14:50 58.93 38.63 33.77 58.93 58.93 11.16 12.24 8.23 22.7 155.7 0.0 0.254 63.81
2020-04-04 14:55 58.14 39.14 33.38 58.14 58.14 10.8 12.42 9.53 15.2 176.2 0.0 0.251 64.0
2020-04-04 15:00 58.26 39.18 33.52 58.26 58.26 6.71 10.63 7.07 22.0 156.4 0.0 0.247 64.18
2020-04-04 15:05 58.75 41.38 35.33 58.75 58.75 9.22 16.17 9.53 17.2 166.8 0.0 0.244 64.35
2020-04-04 15:10 58.39 39.18 33.64 58.39 58.39 10.27 12.42 8.84 13.6 183.0 0.0 0.24 64.54
2020-04-04 15:15 59.0 37.99 33.41 59.0 59.0 10.63 13.67 10.63 25.5 165.1 0.0 0.236 64.71
2020-04-04 15:20 59.41 39.82 34.96 59.41 59.41 6.35 12.24 9.28 25.1 160.0 0.0 0.233 64.87
2020-04-04 15:25 59.97 38.19 34.41 59.97 59.97 10.45 12.77 9.22 13.9 164.3 0.0 0.229 65.03
2020-04-04 15:30 59.67 40.84 35.83 59.67 59.67 9.04 12.24 9.64 11.6 167.0 0.0 0.224 65.16
2020-04-04 15:35 59.97 39.48 35.25 59.97 59.97 8.3 12.95 9.04 12.4 147.4 0.0 0.22 65.32
2020-04-04 15:40 59.79 39.58 35.15 59.79 59.79 9.22 12.77 9.42 13.1 176.0 0.0 0.216 65.44
2020-04-04 15:45 59.61 37.51 33.64 59.61 59.61 7.07 17.43 11.72 14.6 174.0 0.0 0.212 65.57
2020-04-04 15:50 60.64 37.75 34.71 60.64 60.64 9.04 15.28 9.08 12.4 157.8 0.0 0.207 65.64
2020-04-04 15:55 60.15 39.85 35.64 60.15 60.15 10.63 10.98 8.08 16.1 165.9 0.0 0.203 65.71
2020-04-04 16:00 59.85 37.31 33.71 59.85 59.85 9.57 12.95 9.82 12.5 161.2 0.0 0.198 65.73
2020-04-04 16:05 60.51 35.1 32.78 60.51 60.51 12.24 12.95 9.6 27.2 175.3 0.0 0.194 65.77
2020-04-04 16:10 60.94 37.82 35.03 60.94 60.94 9.04 11.16 8.05 16.4 170.9 0.0 0.189 65.77
2020-04-04 16:15 61.07 37.14 34.69 61.07 61.07 14.56 14.56 10.51 16.0 168.6 0.0 0.185 65.77
2020-04-04 16:20 60.1 37.11 33.8 60.1 60.1 9.22 13.49 9.4 14.3 188.0 0.0 0.179 65.8
2020-04-04 16:25 60.4 37.48 34.33 60.4 60.4 8.68 15.1 9.22 12.4 171.4 0.0 0.174 65.86
2020-04-04 16:30 60.4 37.82 34.55 60.4 60.4 10.98 14.2 9.48 12.8 174.4 0.0 0.169 65.89
2020-04-04 16:35 60.89 37.68 34.89 60.89 60.89 10.09 12.59 9.44 12.1 155.1 0.0 0.164 65.93
2020-04-04 16:40 61.12 36.22 34.11 61.12 61.12 8.3 12.06 8.86 12.3 159.4 0.0 0.159 66.0
2020-04-04 16:45 61.2 37.07 34.76 61.2 61.2 7.43 11.52 9.4 22.6 150.3 0.0 0.153 66.04
2020-04-04 16:50 61.43 38.9 36.18 61.43 61.43 9.73 11.88 10.02 11.6 147.0 0.0 0.148 66.09
2020-04-04 16:55 61.68 39.58 36.84 61.68 61.68 6.0 14.56 10.89 11.9 168.7 0.0 0.143 66.15
2020-04-04 17:00 61.43 39.24 36.4 61.43 61.43 7.25 12.77 10.18 14.6 144.6 0.0 0.137 66.18
2020-04-04 17:05 61.07 39.28 36.1 61.07 61.07 9.22 12.06 9.73 13.6 142.2 0.0 0.131 66.22
2020-04-04 17:10 60.4 38.06 34.71 60.4 60.4 9.22 14.56 10.87 14.3 167.2 0.0 0.125 66.27
2020-04-04 17:15 60.94 38.43 35.44 60.94 60.94 13.13 13.13 9.24 16.2 157.1 0.0 0.12 66.31
2020-04-04 17:20 61.07 39.38 36.17 61.07 61.07 8.48 12.95 9.48 10.7 155.7 0.0 0.115 66.31
2020-04-04 17:25 61.5 37.45 35.28 61.5 61.5 9.04 14.74 9.69 10.7 170.1 0.0 0.11 66.34
2020-04-04 17:30 61.2 37.89 35.31 61.2 61.2 11.16 14.2 10.8 16.3 170.6 0.0 0.104 66.34
2020-04-04 17:35 60.84 37.34 34.62 60.84 60.84 12.42 14.74 11.72 9.5 174.5 0.0 0.099 66.34
2020-04-04 17:40 60.64 36.84 34.1 60.64 60.64 12.42 13.13 11.27 17.2 165.3 0.0 0.093 66.34
2020-04-04 17:45 60.35 37.65 34.39 60.35 60.35 10.45 14.38 11.45 14.2 160.5 0.0 0.088 66.34
2020-04-04 17:50 60.53 37.34 34.34 60.53 60.53 14.74 15.28 10.6 9.6 149.2 0.0 0.082 66.34
2020-04-04 17:55 60.28 37.28 34.08 60.28 60.28 11.34 15.82 9.95 11.2 148.7 0.0 0.077 66.29
2020-04-04 18:00 60.35 37.92 34.57 60.35 60.35 10.8 13.49 10.6 7.7 161.0 0.0 0.072 66.27
2020-04-04 18:05 59.92 38.84 34.79 59.92 59.92 10.63 14.92 11.79 8.9 147.7 0.0 0.067 66.25
2020-04-04 18:10 59.79 38.7 34.58 59.79 59.79 12.24 15.99 11.12 9.3 152.0 0.0 0.062 66.2
2020-04-04 18:15 59.49 39.55 34.86 59.49 59.49 10.63 14.38 11.21 9.9 160.9 0.0 0.057 66.16
2020-04-04 18:20 59.31 38.8 34.21 59.31 59.31 12.77 15.28 11.16 8.2 157.2 0.0 0.052 66.09
2020-04-04 18:25 58.87 39.38 34.2 58.87 58.87 11.7 14.74 11.65 8.2 164.0 0.0 0.047 66.02
2020-04-04 18:30 58.51 39.93 34.22 58.51 58.51 12.95 15.46 12.3 8.2 156.2 0.0 0.042 65.97
2020-04-04 18:35 58.26 41.08 34.71 58.26 58.26 8.48 13.85 10.74 8.4 150.8 0.0 0.037 65.88
2020-04-04 18:40 57.96 41.59 34.74 57.96 57.96 11.16 14.56 11.65 8.1 159.9 0.0 0.032 65.8
2020-04-04 18:45 57.52 41.59 34.35 57.52 57.52 10.63 14.92 12.08 6.8 158.9 0.0 0.027 65.7
2020-04-04 18:50 56.98 41.69 33.93 56.98 56.98 14.56 14.56 10.09 8.9 156.1 0.0 0.022 65.61
2020-04-04 18:55 56.62 42.78 34.25 56.62 56.62 10.63 14.56 10.98 8.2 156.0 0.0 0.018 65.52
2020-04-04 19:00 56.07 43.9 34.39 56.07 56.07 10.8 12.59 10.22 10.5 151.3 0.0 0.014 65.41
2020-04-04 19:05 55.45 44.85 34.37 55.45 55.45 11.88 11.88 10.0 8.3 151.2 0.0 0.009 65.28
2020-04-04 19:10 55.15 45.36 34.38 55.15 55.15 10.27 13.67 10.69 7.6 152.0 0.0 0.006 65.17
2020-04-04 19:15 54.59 46.31 34.39 54.59 54.59 10.45 12.24 9.91 8.8 145.2 0.0 0.002 65.03
2020-04-04 19:20 54.1 48.07 34.88 54.1 54.1 8.12 10.45 9.06 7.2 138.8 0.0 0.0 64.92
2020-04-04 19:25 53.19 51.23 35.64 53.19 53.19 8.86 12.24 9.22 9.4 143.6 0.0 0.0 64.78
2020-04-04 19:30 52.65 52.15 35.59 52.65 52.65 10.09 11.7 9.71 7.2 144.6 0.0 0.0 64.65
2020-04-04 19:35 52.27 53.23 35.75 52.27 52.27 8.48 10.98 9.19 8.0 147.9 0.0 0.0 64.51
2020-04-04 19:40 51.96 53.44 35.57 51.96 51.96 11.16 12.24 9.51 8.9 145.6 0.0 0.0 64.36
2020-04-04 19:45 51.73 54.25 35.73 51.73 51.73 10.09 11.52 9.57 8.3 146.0 0.0 0.0 64.2
2020-04-04 19:50 50.76 56.76 35.96 50.76 50.76 8.3 10.27 8.01 9.4 144.1 0.0 0.0 64.06
2020-04-04 19:55 50.38 57.72 36.03 50.38 50.38 7.25 9.91 8.48 8.2 144.1 0.0 0.0 63.91
2020-04-04 20:00 49.96 59.08 36.23 46.58 49.96 8.3 10.63 8.9 6.6 141.8 0.0 0.0 63.77
2020-04-04 20:05 49.46 60.33 36.29 45.96 49.46 8.3 9.91 8.34 8.9 144.6 0.0 0.0 63.64
2020-04-04 20:10 48.97 61.25 36.21 45.02 48.97 9.22 10.63 8.61 9.3 145.4 0.0 0.0 63.48
2020-04-04 20:15 48.85 62.13 36.45 45.07 48.85 8.68 10.8 8.7 8.0 142.0 0.0 0.0 63.32
2020-04-04 20:20 48.61 62.91 36.55 44.39 48.61 9.73 10.98 9.1 7.9 139.8 0.0 0.0 63.21
2020-04-04 20:25 48.36 63.83 36.68 43.77 48.36 10.63 11.16 9.31 7.1 140.5 0.0 0.0 63.05
2020-04-04 20:30 48.36 63.49 36.54 44.55 48.36 8.48 11.88 9.8 7.0 141.9 0.0 0.0 62.89
2020-04-04 20:35 48.18 64.68 36.84 44.18 48.18 8.86 11.16 9.31 9.5 146.7 0.0 0.0 62.76
2020-04-04 20:40 47.82 66.1 37.05 43.81 47.82 8.68 11.34 8.63 6.4 144.8 0.0 0.0 62.62
2020-04-04 20:45 47.64 66.14 36.9 43.52 47.64 8.86 11.16 9.06 9.8 151.0 0.0 0.0 62.46
2020-04-04 20:50 47.52 66.92 37.07 42.78 47.52 10.45 10.45 8.57 8.1 148.4 0.0 0.0 62.33
2020-04-04 20:55 47.52 66.61 36.95 42.78 47.52 10.45 10.8 8.81 6.5 151.5 0.0 0.0 62.17
2020-04-04 21:00 47.34 67.57 37.15 42.37 47.34 10.98 11.52 8.52 9.1 151.8 0.0 0.0 62.02
2020-04-04 21:05 47.16 68.55 37.34 43.97 47.16 6.53 10.27 7.56 8.6 144.4 0.0 0.0 61.88
2020-04-04 21:10 46.8 69.74 37.43 42.48 46.8 8.86 10.09 7.74 8.8 145.2 0.0 0.0 61.75
2020-04-04 21:15 46.54 70.56 37.49 43.24 46.54 6.53 8.86 7.29 7.4 143.9 0.0 0.0 61.61
2020-04-04 21:20 46.06 71.78 37.46 42.56 46.06 6.71 9.22 7.02 7.5 138.5 0.0 0.0 61.47
2020-04-04 21:25 45.75 72.87 37.55 42.8 45.75 5.64 8.3 6.98 8.1 143.9 0.0 0.0 61.34
2020-04-04 21:30 45.45 73.89 37.61 41.55 45.45 7.25 8.86 7.07 7.5 140.8 0.0 0.0 61.2
2020-04-04 21:35 45.19 74.3 37.5 41.34 45.19 7.07 9.57 7.58 9.7 145.3 0.0 0.0 61.07
2020-04-04 21:40 45.09 74.91 37.61 41.49 45.09 6.53 9.4 6.76 7.1 143.7 0.0 0.0 60.94
2020-04-04 21:45 44.83 75.93 37.71 40.9 44.83 7.07 9.04 6.73 9.2 144.7 0.0 0.0 60.8
2020-04-04 21:50 44.6 76.3 37.6 41.78 44.6 5.1 10.27 6.58 6.4 148.6 0.0 0.0 60.67
2020-04-04 21:55 44.35 77.01 37.6 39.96 44.35 7.78 9.04 6.85 6.8 141.6 0.0 0.0 60.55
2020-04-04 22:00 44.17 78.17 37.8 40.1 44.17 7.07 9.22 7.43 7.0 143.0 0.0 0.0 60.42
2020-04-04 22:05 43.74 79.42 37.79 38.64 43.74 9.04 9.04 7.18 6.6 144.9 0.0 0.0 60.3
2020-04-04 22:10 43.68 79.35 37.71 39.51 43.68 7.07 9.4 7.65 7.6 145.6 0.0 0.0 60.19
2020-04-04 22:15 43.25 79.9 37.47 39.29 43.25 6.53 9.04 6.91 8.8 144.5 0.0 0.0 60.04
2020-04-04 22:20 43.07 80.6 37.51 38.49 43.07 7.61 8.86 6.93 8.0 146.0 0.0 0.0 59.94
2020-04-04 22:25 42.64 81.4 37.34 38.99 42.64 5.82 8.48 6.6 6.6 148.5 0.0 0.0 59.83
2020-04-04 22:30 42.21 82.0 37.11 38.96 42.21 5.1 7.61 6.08 6.4 151.3 0.0 0.0 59.7
2020-04-04 22:35 41.85 82.7 36.97 38.05 41.85 5.82 6.89 5.75 7.1 152.7 0.0 0.0 59.58
2020-04-04 22:40 41.9 82.3 36.9 38.6 41.9 5.1 7.61 6.11 7.0 153.1 0.0 0.0 59.45
2020-04-04 22:45 41.77 82.7 36.9 37.73 41.77 6.17 7.43 5.86 7.5 149.9 0.0 0.0 59.34
2020-04-04 22:50 41.59 83.5 36.97 37.75 41.59 5.82 6.89 5.44 10.2 155.2 0.0 0.0 59.22
2020-04-04 22:55 41.49 84.5 37.16 37.99 41.49 5.28 6.89 5.59 8.4 145.6 0.0 0.0 59.11
2020-04-04 23:00 41.41 83.8 36.88 37.65 41.41 5.64 6.71 5.73 7.2 143.7 0.0 0.0 59.0
2020-04-04 23:05 41.23 84.8 37.01 36.98 41.23 6.35 8.12 6.08 9.0 150.9 0.0 0.0 58.87
2020-04-04 23:10 40.75 85.7 36.8 36.4 40.75 6.35 6.89 6.2 4.8 153.4 0.0 0.0 58.77
2020-04-04 23:15 40.51 86.1 36.69 36.35 40.51 6.0 7.07 6.02 7.9 158.9 0.0 0.0 58.66
2020-04-04 23:20 40.44 85.9 36.56 35.81 40.44 6.71 6.71 6.06 7.9 166.0 0.0 0.0 58.55
2020-04-04 23:25 40.44 86.5 36.73 35.92 40.44 6.53 7.61 6.49 6.3 168.5 0.0 0.0 58.42
2020-04-04 23:30 40.21 87.3 36.74 35.86 40.21 6.17 8.12 6.67 7.2 173.1 0.0 0.0 58.33
2020-04-04 23:35 40.39 88.3 37.2 34.97 40.39 8.12 8.12 6.58 6.9 175.9 0.0 0.0 58.19
2020-04-04 23:40 40.14 88.2 36.93 35.34 40.14 6.89 7.61 6.33 7.3 177.5 0.0 0.0 58.1
2020-04-04 23:45 39.83 88.4 36.68 35.9 39.83 5.46 6.89 5.77 6.7 178.9 0.0 0.0 57.99
2020-04-04 23:50 39.47 89.1 36.53 35.35 39.47 5.64 6.0 5.41 6.0 177.0 0.0 0.0 57.87
2020-04-04 23:55 39.11 89.1 36.17 36.07 39.11 4.21 5.64 4.97 5.7 177.5 0.0 0.0 57.78
2020-04-05 00:00 38.61 89.8 35.87 35.49 38.61 4.21 4.74 4.27 5.2 169.9 0.0 0.0 57.67
2020-04-05 00:05 38.37 91.8 36.2 35.56 38.37 3.85 4.56 3.96 5.5 177.1 0.0 0.0 57.56
2020-04-05 00:10 38.25 91.6 36.02 34.45 38.25 4.92 4.92 4.18 5.6 178.7 0.0 0.0 57.45
2020-04-05 00:15 37.94 91.1 35.58 34.89 37.94 4.03 5.1 4.52 6.5 170.9 0.0 0.0 57.36
2020-04-05 00:20 37.58 92.8 35.69 34.65 37.58 3.85 4.56 3.76 8.4 164.4 0.0 0.0 57.25
2020-04-05 00:25 37.89 92.7 35.96 34.65 37.89 4.21 4.74 4.09 6.7 160.5 0.0 0.0 57.15
2020-04-05 00:30 38.43 92.9 36.55 35.8 38.43 3.67 5.46 4.41 8.0 169.7 0.0 0.0 57.06
2020-04-05 00:35 39.16 93.8 37.53 34.39 39.16 6.53 6.53 4.94 7.5 175.0 0.0 0.0 56.95
2020-04-05 00:40 39.85 93.1 38.02 35.21 39.85 6.53 7.07 6.02 8.3 175.4 0.0 0.0 56.84
2020-04-05 00:45 40.21 92.6 38.24 35.32 40.21 7.07 7.78 6.33 8.0 179.2 0.0 0.0 56.73
2020-04-05 00:50 40.33 92.8 38.42 35.37 40.33 7.25 8.68 6.6 9.4 178.5 0.0 0.0 56.64
2020-04-05 00:55 40.46 93.0 38.6 36.28 40.46 6.0 7.43 6.35 7.4 184.3 0.0 0.0 56.53
2020-04-05 01:00 40.33 93.2 38.53 36.5 40.33 5.46 6.53 5.55 8.2 187.1 0.0 0.0 56.44
2020-04-05 01:05 40.03 93.5 38.3 36.01 40.03 5.64 6.71 5.79 6.2 189.8 0.0 0.0 56.34
2020-04-05 01:10 39.85 93.3 38.07 34.99 39.85 6.89 7.78 6.15 8.3 191.5 0.0 0.0 56.26
2020-04-05 01:15 39.9 93.1 38.07 35.74 39.9 5.82 8.3 6.78 6.9 193.0 0.0 0.0 56.17
2020-04-05 01:20 39.9 93.5 38.18 34.95 39.9 7.07 9.04 7.29 8.9 194.2 0.0 0.0 56.08
2020-04-05 01:25 39.9 93.4 38.15 35.27 39.9 6.53 8.86 7.36 6.0 194.5 0.0 0.0 56.01
2020-04-05 01:30 39.6 94.1 38.04 34.8 39.6 6.71 7.25 6.13 7.7 199.1 0.0 0.0 55.9
2020-04-05 01:35 39.47 94.1 37.91 35.48 39.47 5.46 8.48 6.85 8.5 196.2 0.0 0.0 55.81
2020-04-05 01:40 39.29 94.5 37.84 34.65 39.29 6.35 8.12 6.35 6.0 196.5 0.0 0.0 55.74
2020-04-05 01:45 39.29 94.7 37.9 34.21 39.29 7.07 8.12 6.67 9.2 196.5 0.0 0.0 55.65
2020-04-05 01:50 39.11 95.0 37.8 33.41 39.11 8.12 8.12 6.82 8.6 198.1 0.0 0.0 55.58
2020-04-05 01:55 38.98 95.4 37.78 34.52 38.98 6.0 7.78 6.33 8.0 201.5 0.0 0.0 55.47
2020-04-05 02:00 38.98 95.3 37.75 34.4 38.98 6.17 8.3 6.78 9.2 193.6 0.0 0.0 55.4
2020-04-05 02:05 38.93 95.5 37.75 34.0 38.93 6.71 7.43 6.49 7.8 198.0 0.0 0.0 55.33
2020-04-05 02:10 38.8 96.3 37.84 34.07 38.8 6.35 7.78 6.42 6.2 196.2 0.0 0.0 55.24
2020-04-05 02:15 38.68 96.2 37.69 33.47 38.68 7.07 7.61 6.24 7.3 196.4 0.0 0.0 55.15
2020-04-05 02:20 38.55 96.2 37.56 34.13 38.55 5.82 8.12 6.53 9.2 200.8 0.0 0.0 55.09
2020-04-05 02:25 38.37 97.1 37.62 33.0 38.37 7.25 7.78 6.02 8.2 202.0 0.0 0.0 55.02
2020-04-05 02:30 38.5 97.2 37.77 33.48 38.5 6.71 7.96 6.49 9.6 200.3 0.0 0.0 54.93
2020-04-05 02:35 38.5 97.4 37.83 33.82 38.5 6.17 8.12 6.2 9.7 206.1 0.0 0.0 54.84
2020-04-05 02:40 38.32 97.5 37.67 33.26 38.32 6.71 8.3 6.6 8.1 203.1 0.0 0.0 54.77
2020-04-05 02:45 38.44 97.8 37.88 32.98 38.44 7.43 8.86 7.49 6.1 200.3 0.0 0.0 54.68
2020-04-05 02:50 38.25 97.7 37.65 33.64 38.25 6.0 8.48 6.89 8.3 200.6 0.0 0.0 54.61
2020-04-05 02:55 38.01 97.7 37.42 33.62 38.01 5.64 7.07 6.08 8.4 198.5 0.0 0.0 54.54
2020-04-05 03:00 37.58 98.2 37.12 32.98 37.58 5.82 6.53 5.7 7.4 202.0 0.0 0.0 54.46
2020-04-05 03:05 37.53 98.6 37.17 32.66 37.53 6.17 7.61 6.31 6.4 201.8 0.0 0.0 54.37
2020-04-05 03:10 37.27 98.6 36.92 32.24 37.27 6.35 6.71 5.95 5.7 204.4 0.0 0.0 54.3
2020-04-05 03:15 36.79 98.9 36.51 31.66 36.79 6.35 7.25 6.11 6.2 209.0 0.0 0.0 54.21
2020-04-05 03:20 36.54 99.4 36.38 31.61 36.54 6.0 8.12 6.67 6.6 201.7 0.0 0.0 54.16
2020-04-05 03:25 36.43 99.9 36.4 30.99 36.43 6.71 8.12 6.8 8.3 208.5 0.0 0.0 54.07
2020-04-05 03:30 36.48 100.0 36.48 31.42 36.48 6.17 7.43 6.51 7.6 211.7 0.0 0.0 54.01
2020-04-05 03:35 36.54 100.0 36.54 31.36 36.54 6.35 7.61 6.24 6.2 214.9 0.0 0.0 53.92
2020-04-05 03:40 36.73 100.0 36.73 32.52 36.73 5.1 7.25 5.64 7.3 216.8 0.0 0.0 53.85
2020-04-05 03:45 36.66 100.0 36.66 33.06 36.66 4.38 6.71 5.28 6.4 218.2 0.0 0.0 53.78
2020-04-05 03:50 36.36 99.9 36.33 32.54 36.36 4.56 5.64 4.63 9.3 217.5 0.0 0.0 53.71
2020-04-05 03:55 36.25 100.0 36.25 32.75 36.25 4.21 5.82 4.52 6.9 218.6 0.0 0.0 53.64
2020-04-05 04:00 36.18 100.0 36.18 31.31 36.18 5.82 5.82 4.97 6.6 221.2 0.0 0.0 53.55
2020-04-05 04:05 36.68 100.0 36.68 32.04 36.68 5.64 7.07 5.75 7.3 217.6 0.0 0.0 53.47
2020-04-05 04:10 37.09 100.0 37.09 32.15 37.09 6.17 7.43 6.13 10.7 212.8 0.0 0.0 53.4
2020-04-05 04:15 37.35 100.0 37.35 32.83 37.35 5.64 7.25 6.13 7.5 208.9 0.0 0.0 53.33
2020-04-05 04:20 37.17 100.0 37.17 32.23 37.17 6.17 6.89 5.97 8.8 212.7 0.0 0.0 53.26
2020-04-05 04:25 36.79 100.0 36.79 32.3 36.79 5.46 6.71 5.46 8.6 209.6 0.0 0.0 53.19
2020-04-05 04:30 36.48 100.0 36.48 31.81 36.48 5.64 6.53 5.41 8.4 214.3 0.0 0.0 53.11
2020-04-05 04:35 36.25 100.0 36.25 31.67 36.25 5.46 6.71 5.37 8.6 219.0 0.0 0.0 53.04
2020-04-05 04:40 35.94 100.0 35.94 31.9 35.94 4.74 5.64 4.74 6.0 215.6 0.0 0.0 52.97
2020-04-05 04:45 35.82 100.0 35.82 31.44 35.82 5.1 5.82 5.1 7.5 215.2 0.0 0.0 52.9
2020-04-05 04:50 35.82 100.0 35.82 32.08 35.82 4.38 6.17 5.19 7.8 224.2 0.0 0.0 52.84
2020-04-05 04:55 35.38 100.0 35.38 30.23 35.38 6.0 6.35 5.39 8.1 225.5 0.0 0.0 52.75
2020-04-05 05:00 35.56 100.0 35.56 31.15 35.56 5.1 6.53 5.66 5.5 224.6 0.0 0.0 52.7
2020-04-05 05:05 35.2 100.0 35.2 29.89 35.2 6.17 6.17 5.12 8.3 229.9 0.0 0.0 52.63
2020-04-05 05:10 34.95 100.0 34.95 30.28 34.95 5.28 6.53 5.3 7.3 232.7 0.0 0.0 52.56
2020-04-05 05:15 35.08 100.0 35.08 30.89 35.08 4.74 6.35 5.08 9.8 231.3 0.0 0.0 52.48
2020-04-05 05:20 35.2 100.0 35.2 30.29 35.2 5.64 5.82 4.85 9.0 233.7 0.0 0.0 52.41
2020-04-05 05:25 35.15 100.0 35.15 31.3 35.15 4.38 6.53 5.12 8.1 222.2 0.0 0.0 52.36
2020-04-05 05:30 34.9 100.0 34.9 30.68 34.9 4.74 5.64 4.76 5.6 221.2 0.0 0.0 52.29
2020-04-05 05:35 34.84 100.0 34.84 30.45 34.84 4.92 6.35 5.23 6.7 201.6 0.0 0.0 52.2
2020-04-05 05:40 34.77 100.0 34.77 30.22 34.77 5.1 5.64 4.9 8.4 210.8 0.0 0.0 52.14
2020-04-05 05:45 34.59 100.0 34.59 30.65 34.59 4.38 5.64 4.5 8.0 221.3 0.0 0.0 52.09
2020-04-05 05:50 34.59 100.0 34.59 30.32 34.59 4.74 5.64 4.79 9.2 210.0 0.0 0.0 52.02
2020-04-05 05:55 34.84 100.0 34.84 30.15 34.84 5.28 6.0 5.06 7.9 215.8 0.0 0.0 51.94
2020-04-05 06:00 35.08 100.0 35.08 29.61 35.08 6.35 8.3 6.33 6.6 216.7 0.0 0.0 51.87
2020-04-05 06:05 34.95 100.0 34.95 29.1 34.95 6.89 8.3 6.8 9.9 223.1 0.0 0.0 51.8
2020-04-05 06:10 34.59 100.0 34.59 29.56 34.59 5.64 8.12 6.38 7.4 219.8 0.0 0.0 51.73
2020-04-05 06:15 34.41 100.0 34.41 28.69 34.41 6.53 8.3 6.46 5.8 219.9 0.0 0.0 51.67
2020-04-05 06:20 34.11 100.0 34.11 29.43 34.11 5.1 6.89 5.88 6.2 221.7 0.0 0.0 51.62
2020-04-05 06:25 34.05 100.0 34.05 27.89 34.05 7.07 7.61 6.33 8.3 223.0 0.0 0.0 51.57
2020-04-05 06:30 33.93 100.0 33.93 28.36 33.93 6.17 6.71 5.73 8.7 227.3 0.0 0.001 51.51
2020-04-05 06:35 33.93 100.0 33.93 28.36 33.93 6.17 8.3 6.73 6.8 224.7 0.0 0.001 51.44
2020-04-05 06:40 33.85 100.0 33.85 28.69 33.85 5.64 7.78 6.51 7.0 224.4 0.0 0.002 51.4
2020-04-05 06:45 33.85 100.0 33.85 28.15 33.85 6.35 8.86 6.76 11.3 234.9 0.0 0.004 51.37
2020-04-05 06:50 33.98 100.0 33.98 27.92 33.98 6.89 8.68 6.89 12.0 223.1 0.0 0.007 51.3
2020-04-05 06:55 34.05 100.0 34.05 28.65 34.05 6.0 8.3 6.58 9.1 213.1 0.0 0.01 51.28
2020-04-05 07:00 33.98 100.0 33.98 27.25 33.98 7.96 8.12 6.53 10.5 202.3 0.0 0.011 51.21
2020-04-05 07:05 33.93 100.0 33.93 28.36 33.93 6.17 9.73 7.27 8.6 197.8 0.0 0.011 51.17
2020-04-05 07:10 33.93 100.0 33.93 27.4 33.93 7.61 7.96 6.53 8.1 203.5 0.0 0.013 51.13
2020-04-05 07:15 34.05 100.0 34.05 27.66 34.05 7.43 8.12 6.46 7.9 206.8 0.0 0.022 51.1
2020-04-05 07:20 34.29 100.0 34.29 28.66 34.29 6.35 7.96 6.58 4.7 202.2 0.0 0.026 51.04
2020-04-05 07:25 35.08 100.0 35.08 29.49 35.08 6.53 7.96 6.49 8.5 200.3 0.0 0.032 50.99
2020-04-05 07:30 35.56 100.0 35.56 29.39 35.56 7.61 8.48 6.89 9.7 207.6 0.0 0.043 50.97
2020-04-05 07:35 35.76 100.0 35.76 30.82 35.76 5.82 7.78 6.6 9.7 210.0 0.0 0.039 50.95
2020-04-05 07:40 36.25 100.0 36.25 31.14 36.25 6.17 8.12 7.18 8.3 210.1 0.0 0.042 50.92
2020-04-05 07:45 36.79 100.0 36.79 32.04 36.79 5.82 7.96 6.55 9.8 207.1 0.0 0.048 50.88
2020-04-05 07:50 37.35 100.0 37.35 30.69 37.35 9.22 9.22 7.05 7.8 198.7 0.0 0.062 50.85
2020-04-05 07:55 37.96 100.0 37.96 33.56 37.96 5.64 9.22 6.53 9.1 199.3 0.0 0.058 50.83
2020-04-05 08:00 38.39 100.0 38.39 33.58 38.39 6.35 8.3 7.07 12.7 206.8 0.0 0.06 50.81
2020-04-05 08:05 38.68 100.0 38.68 32.79 38.68 8.3 10.09 8.05 7.0 202.3 0.0 0.065 50.81
2020-04-05 08:10 39.36 100.0 39.36 33.9 39.36 7.78 9.22 7.76 7.6 208.8 0.0 0.072 50.81
2020-04-05 08:15 40.46 100.0 40.46 36.28 40.46 6.0 8.86 6.91 8.7 212.4 0.0 0.094 50.81
2020-04-05 08:20 40.87 100.0 40.87 35.56 40.87 8.12 9.04 7.65 10.2 212.1 0.0 0.11 50.81
2020-04-05 08:25 41.67 100.0 41.67 35.57 41.67 10.27 10.27 8.23 11.6 216.2 0.0 0.099 50.81
2020-04-05 08:30 42.53 100.0 42.53 37.32 42.53 8.68 10.09 8.43 9.4 220.6 0.0 0.105 50.86
2020-04-05 08:35 43.5 100.0 43.5 39.02 43.5 7.61 10.09 8.5 14.9 239.6 0.0 0.122 50.88
2020-04-05 08:40 43.25 100.0 43.25 38.29 43.25 8.48 10.45 8.95 9.8 255.2 0.0 0.111 50.92
2020-04-05 08:45 43.68 100.0 43.68 39.42 43.68 7.25 10.63 8.5 10.8 238.2 0.0 0.139 50.97
2020-04-05 08:50 44.96 100.0 44.96 40.15 44.96 9.04 12.06 8.81 13.5 224.4 0.0 0.148 51.01
2020-04-05 08:55 45.45 97.0 44.64 41.46 45.45 7.43 11.34 9.1 7.7 223.1 0.0 0.156 51.1
2020-04-05 09:00 46.8 92.0 44.59 42.2 46.8 9.57 10.63 8.46 14.1 220.8 0.0 0.165 51.15
2020-04-05 09:05 47.82 87.7 44.35 43.47 47.82 9.57 13.13 10.09 10.6 223.1 0.0 0.164 51.24
2020-04-05 09:10 48.81 85.2 44.57 44.57 48.81 9.91 11.34 9.28 11.9 221.7 0.0 0.162 51.33
2020-04-05 09:15 49.17 83.7 44.45 45.02 49.17 9.91 11.88 9.84 13.6 219.5 0.0 0.181 51.44
2020-04-05 09:20 50.02 80.5 44.26 50.02 50.02 11.7 13.85 11.12 10.1 217.8 0.0 0.176 51.57
2020-04-05 09:25 50.88 77.0 43.93 50.88 50.88 11.7 12.77 10.51 15.7 212.7 0.0 0.193 51.69
2020-04-05 09:30 51.24 77.07 44.3 51.24 51.24 9.57 13.49 11.59 11.3 212.0 0.0 0.198 51.85
2020-04-05 09:35 51.67 77.27 44.79 51.67 51.67 11.88 13.67 11.12 11.2 215.0 0.0 0.206 52.0
2020-04-05 09:40 52.52 75.4 44.97 52.52 52.52 9.91 12.77 9.93 12.2 207.1 0.0 0.203 52.16
2020-04-05 09:45 52.34 72.14 43.63 52.34 52.34 12.06 13.49 10.98 9.5 200.0 0.0 0.206 52.32
2020-04-05 09:50 52.65 70.24 43.23 52.65 52.65 14.38 14.38 10.36 11.4 205.4 0.0 0.213 52.48
2020-04-05 09:55 52.7 72.11 43.97 52.7 52.7 7.78 14.2 10.33 9.6 202.7 0.0 0.22 52.68
2020-04-05 10:00 52.88 70.11 43.4 52.88 52.88 9.57 13.67 10.87 11.1 202.7 0.0 0.227 52.88
2020-04-05 10:05 53.92 67.59 43.45 53.92 53.92 10.09 14.03 9.33 12.8 202.1 0.0 0.233 53.08
2020-04-05 10:10 53.74 69.26 43.91 53.74 53.74 12.42 12.59 9.57 10.0 194.9 0.0 0.233 53.28
2020-04-05 10:15 54.05 66.95 43.32 54.05 54.05 11.16 12.77 9.98 12.6 193.5 0.0 0.238 53.47
2020-04-05 10:20 54.23 68.31 44.02 54.23 54.23 10.63 12.06 9.8 12.1 190.3 0.0 0.218 53.69
2020-04-05 10:25 54.41 68.41 44.23 54.41 54.41 9.4 14.56 9.98 12.6 193.9 0.0 0.246 53.91
2020-04-05 10:30 55.58 62.4 42.93 55.58 55.58 8.68 12.24 9.82 15.3 190.7 0.0 0.244 54.14
2020-04-05 10:35 55.4 63.55 43.24 55.4 55.4 9.91 12.59 9.78 8.8 188.7 0.0 0.242 54.37
2020-04-05 10:40 56.19 65.83 44.92 56.19 56.19 11.34 13.67 9.64 18.9 201.1 0.0 0.202 54.61
2020-04-05 10:45 56.07 62.71 43.52 56.07 56.07 8.3 11.88 8.79 13.8 192.8 0.0 0.211 54.84
2020-04-05 10:50 56.62 66.17 45.46 56.62 56.62 6.89 11.88 9.51 8.5 188.0 0.0 0.248 55.09
2020-04-05 10:55 56.8 61.25 43.61 56.8 56.8 10.09 12.06 9.42 12.9 190.8 0.0 0.248 55.33
2020-04-05 11:00 57.52 56.36 42.11 57.52 57.52 10.27 12.95 9.75 12.1 187.2 0.0 0.255 55.56
2020-04-05 11:05 57.83 59.07 43.62 57.83 57.83 6.53 12.24 9.04 12.9 186.8 0.0 0.261 55.81

Data is courtesy of the NM Climate Center. DO NOT USE IN LEGAL PROCEEDINGS.